sensor_id;sensor_type;location;lat;lon;timestamp;temperature;humidity
72814;DHT22;60945;48.516;-2.768;2023-07-20T00:02:00;15.00;84.30
72814;DHT22;60945;48.516;-2.768;2023-07-20T00:04:26;15.00;84.70
72814;DHT22;60945;48.516;-2.768;2023-07-20T00:06:51;15.10;84.60
72814;DHT22;60945;48.516;-2.768;2023-07-20T00:09:17;15.00;84.40
72814;DHT22;60945;48.516;-2.768;2023-07-20T00:11:49;15.00;84.40
72814;DHT22;60945;48.516;-2.768;2023-07-20T00:14:17;15.00;84.40
72814;DHT22;60945;48.516;-2.768;2023-07-20T00:16:42;15.00;85.00
72814;DHT22;60945;48.516;-2.768;2023-07-20T00:19:08;14.90;84.90
72814;DHT22;60945;48.516;-2.768;2023-07-20T00:21:34;14.90;85.00
72814;DHT22;60945;48.516;-2.768;2023-07-20T00:24:00;15.00;84.90
72814;DHT22;60945;48.516;-2.768;2023-07-20T00:26:25;14.90;84.80
72814;DHT22;60945;48.516;-2.768;2023-07-20T00:28:51;15.00;84.70
72814;DHT22;60945;48.516;-2.768;2023-07-20T00:31:17;14.90;84.90
72814;DHT22;60945;48.516;-2.768;2023-07-20T00:33:42;14.80;85.10
72814;DHT22;60945;48.516;-2.768;2023-07-20T00:36:08;14.90;85.30
72814;DHT22;60945;48.516;-2.768;2023-07-20T00:38:34;14.80;85.40
72814;DHT22;60945;48.516;-2.768;2023-07-20T00:40:59;14.80;85.30
72814;DHT22;60945;48.516;-2.768;2023-07-20T00:43:25;14.80;85.50
72814;DHT22;60945;48.516;-2.768;2023-07-20T00:45:51;14.70;85.60
72814;DHT22;60945;48.516;-2.768;2023-07-20T00:48:16;14.70;85.60
72814;DHT22;60945;48.516;-2.768;2023-07-20T00:50:42;14.70;85.80
72814;DHT22;60945;48.516;-2.768;2023-07-20T00:53:08;14.70;85.60
72814;DHT22;60945;48.516;-2.768;2023-07-20T00:55:34;14.60;86.00
72814;DHT22;60945;48.516;-2.768;2023-07-20T00:58:00;14.70;86.20
72814;DHT22;60945;48.516;-2.768;2023-07-20T01:00:26;14.60;86.00
72814;DHT22;60945;48.516;-2.768;2023-07-20T01:02:53;14.60;85.80
72814;DHT22;60945;48.516;-2.768;2023-07-20T01:05:18;14.60;86.00
72814;DHT22;60945;48.516;-2.768;2023-07-20T01:08:07;14.60;85.90
72814;DHT22;60945;48.516;-2.768;2023-07-20T01:10:54;14.60;86.30
72814;DHT22;60945;48.516;-2.768;2023-07-20T01:13:22;14.50;86.50
72814;DHT22;60945;48.516;-2.768;2023-07-20T01:16:00;14.50;86.30
72814;DHT22;60945;48.516;-2.768;2023-07-20T01:18:26;14.50;86.60
72814;DHT22;60945;48.516;-2.768;2023-07-20T01:20:55;14.50;86.50
72814;DHT22;60945;48.516;-2.768;2023-07-20T01:29:29;14.50;86.50
72814;DHT22;60945;48.516;-2.768;2023-07-20T01:31:58;14.50;86.60
72814;DHT22;60945;48.516;-2.768;2023-07-20T01:34:26;14.50;86.70
72814;DHT22;60945;48.516;-2.768;2023-07-20T01:36:53;14.40;86.50
72814;DHT22;60945;48.516;-2.768;2023-07-20T01:39:20;14.40;86.40
72814;DHT22;60945;48.516;-2.768;2023-07-20T01:41:46;14.40;86.40
72814;DHT22;60945;48.516;-2.768;2023-07-20T01:44:13;14.40;86.40
72814;DHT22;60945;48.516;-2.768;2023-07-20T01:46:38;14.40;87.00
72814;DHT22;60945;48.516;-2.768;2023-07-20T01:49:04;14.30;86.80
72814;DHT22;60945;48.516;-2.768;2023-07-20T01:51:30;14.30;86.70
72814;DHT22;60945;48.516;-2.768;2023-07-20T01:53:55;14.30;86.70
72814;DHT22;60945;48.516;-2.768;2023-07-20T01:56:21;14.30;86.60
72814;DHT22;60945;48.516;-2.768;2023-07-20T01:58:47;14.30;87.00
72814;DHT22;60945;48.516;-2.768;2023-07-20T02:01:12;14.30;86.70
72814;DHT22;60945;48.516;-2.768;2023-07-20T02:03:38;14.30;86.70
72814;DHT22;60945;48.516;-2.768;2023-07-20T02:06:03;14.30;86.60
72814;DHT22;60945;48.516;-2.768;2023-07-20T02:08:29;14.30;86.50
72814;DHT22;60945;48.516;-2.768;2023-07-20T02:10:55;14.20;86.50
72814;DHT22;60945;48.516;-2.768;2023-07-20T02:13:20;14.10;86.50
72814;DHT22;60945;48.516;-2.768;2023-07-20T02:15:46;14.10;87.20
72814;DHT22;60945;48.516;-2.768;2023-07-20T02:18:14;14.20;87.30
72814;DHT22;60945;48.516;-2.768;2023-07-20T02:20:41;14.10;87.10
72814;DHT22;60945;48.516;-2.768;2023-07-20T02:23:07;14.10;87.30
72814;DHT22;60945;48.516;-2.768;2023-07-20T02:25:33;14.10;87.20
72814;DHT22;60945;48.516;-2.768;2023-07-20T02:27:58;14.10;87.00
72814;DHT22;60945;48.516;-2.768;2023-07-20T02:30:27;14.10;86.80
72814;DHT22;60945;48.516;-2.768;2023-07-20T02:32:53;14.10;87.00
72814;DHT22;60945;48.516;-2.768;2023-07-20T02:35:18;14.20;86.90
72814;DHT22;60945;48.516;-2.768;2023-07-20T02:37:44;14.20;87.00
72814;DHT22;60945;48.516;-2.768;2023-07-20T02:40:10;14.20;86.60
72814;DHT22;60945;48.516;-2.768;2023-07-20T02:42:36;14.20;86.80
72814;DHT22;60945;48.516;-2.768;2023-07-20T02:45:03;14.20;87.00
72814;DHT22;60945;48.516;-2.768;2023-07-20T02:47:29;14.20;87.00
72814;DHT22;60945;48.516;-2.768;2023-07-20T02:49:55;14.10;86.90
72814;DHT22;60945;48.516;-2.768;2023-07-20T02:52:21;14.10;86.70
72814;DHT22;60945;48.516;-2.768;2023-07-20T02:54:46;14.10;87.40
72814;DHT22;60945;48.516;-2.768;2023-07-20T02:57:12;14.10;87.40
72814;DHT22;60945;48.516;-2.768;2023-07-20T02:59:38;14.10;87.20
72814;DHT22;60945;48.516;-2.768;2023-07-20T03:02:03;14.10;87.20
72814;DHT22;60945;48.516;-2.768;2023-07-20T03:04:29;14.10;87.10
72814;DHT22;60945;48.516;-2.768;2023-07-20T03:06:55;14.10;86.90
72814;DHT22;60945;48.516;-2.768;2023-07-20T03:09:20;14.10;86.80
72814;DHT22;60945;48.516;-2.768;2023-07-20T03:11:46;14.10;86.80
72814;DHT22;60945;48.516;-2.768;2023-07-20T03:14:15;14.10;86.70
72814;DHT22;60945;48.516;-2.768;2023-07-20T03:16:41;14.10;86.60
72814;DHT22;60945;48.516;-2.768;2023-07-20T03:19:06;14.10;86.20
72814;DHT22;60945;48.516;-2.768;2023-07-20T03:21:32;14.10;86.70
72814;DHT22;60945;48.516;-2.768;2023-07-20T03:23:58;14.10;86.60
72814;DHT22;60945;48.516;-2.768;2023-07-20T03:26:23;14.20;86.90
72814;DHT22;60945;48.516;-2.768;2023-07-20T03:28:49;14.10;86.80
72814;DHT22;60945;48.516;-2.768;2023-07-20T03:31:15;14.10;87.20
72814;DHT22;60945;48.516;-2.768;2023-07-20T03:33:40;14.10;87.40
72814;DHT22;60945;48.516;-2.768;2023-07-20T03:36:06;14.10;87.40
72814;DHT22;60945;48.516;-2.768;2023-07-20T03:38:32;14.10;87.30
72814;DHT22;60945;48.516;-2.768;2023-07-20T03:41:00;14.10;87.00
72814;DHT22;60945;48.516;-2.768;2023-07-20T03:43:27;14.10;87.20
72814;DHT22;60945;48.516;-2.768;2023-07-20T03:45:53;14.00;87.20
72814;DHT22;60945;48.516;-2.768;2023-07-20T03:48:21;14.00;88.00
72814;DHT22;60945;48.516;-2.768;2023-07-20T03:50:49;14.00;87.80
72814;DHT22;60945;48.516;-2.768;2023-07-20T03:53:15;13.90;88.00
72814;DHT22;60945;48.516;-2.768;2023-07-20T03:55:52;13.90;88.00
72814;DHT22;60945;48.516;-2.768;2023-07-20T03:58:18;13.80;88.30
72814;DHT22;60945;48.516;-2.768;2023-07-20T04:00:51;13.80;88.30
72814;DHT22;60945;48.516;-2.768;2023-07-20T04:03:20;13.80;88.30
72814;DHT22;60945;48.516;-2.768;2023-07-20T04:05:46;13.80;88.10
72814;DHT22;60945;48.516;-2.768;2023-07-20T04:08:12;13.80;87.90
72814;DHT22;60945;48.516;-2.768;2023-07-20T04:10:38;13.80;87.70
72814;DHT22;60945;48.516;-2.768;2023-07-20T04:13:04;13.80;87.80
72814;DHT22;60945;48.516;-2.768;2023-07-20T04:15:30;13.80;87.90
72814;DHT22;60945;48.516;-2.768;2023-07-20T04:17:56;13.80;87.90
72814;DHT22;60945;48.516;-2.768;2023-07-20T04:20:23;13.80;87.90
72814;DHT22;60945;48.516;-2.768;2023-07-20T04:22:49;13.80;87.90
72814;DHT22;60945;48.516;-2.768;2023-07-20T04:25:15;13.80;87.90
72814;DHT22;60945;48.516;-2.768;2023-07-20T04:27:40;13.80;87.90
72814;DHT22;60945;48.516;-2.768;2023-07-20T04:30:08;13.80;88.10
72814;DHT22;60945;48.516;-2.768;2023-07-20T04:32:33;13.80;88.00
72814;DHT22;60945;48.516;-2.768;2023-07-20T04:34:59;13.80;88.10
72814;DHT22;60945;48.516;-2.768;2023-07-20T04:37:25;13.90;88.10
72814;DHT22;60945;48.516;-2.768;2023-07-20T04:39:50;13.90;88.30
72814;DHT22;60945;48.516;-2.768;2023-07-20T04:42:16;13.90;87.70
72814;DHT22;60945;48.516;-2.768;2023-07-20T04:44:42;13.80;88.00
72814;DHT22;60945;48.516;-2.768;2023-07-20T04:47:07;13.90;88.00
72814;DHT22;60945;48.516;-2.768;2023-07-20T04:49:36;13.90;87.90
72814;DHT22;60945;48.516;-2.768;2023-07-20T04:52:02;13.90;87.80
72814;DHT22;60945;48.516;-2.768;2023-07-20T04:54:28;13.90;87.80
72814;DHT22;60945;48.516;-2.768;2023-07-20T04:56:54;13.90;87.70
72814;DHT22;60945;48.516;-2.768;2023-07-20T04:59:19;14.00;87.40
72814;DHT22;60945;48.516;-2.768;2023-07-20T05:01:45;14.00;87.70
72814;DHT22;60945;48.516;-2.768;2023-07-20T05:04:11;14.00;87.50
72814;DHT22;60945;48.516;-2.768;2023-07-20T05:06:36;14.00;87.40
72814;DHT22;60945;48.516;-2.768;2023-07-20T05:09:04;14.00;87.20
72814;DHT22;60945;48.516;-2.768;2023-07-20T05:11:30;14.10;87.20
72814;DHT22;60945;48.516;-2.768;2023-07-20T05:13:56;14.20;86.80
72814;DHT22;60945;48.516;-2.768;2023-07-20T05:16:22;14.20;86.80
72814;DHT22;60945;48.516;-2.768;2023-07-20T05:18:47;14.30;86.60
72814;DHT22;60945;48.516;-2.768;2023-07-20T05:21:13;14.40;86.20
72814;DHT22;60945;48.516;-2.768;2023-07-20T05:23:39;14.40;86.00
72814;DHT22;60945;48.516;-2.768;2023-07-20T05:26:04;14.70;85.70
72814;DHT22;60945;48.516;-2.768;2023-07-20T05:28:30;14.90;84.60
72814;DHT22;60945;48.516;-2.768;2023-07-20T05:30:56;15.10;83.90
72814;DHT22;60945;48.516;-2.768;2023-07-20T05:33:22;15.20;82.90
72814;DHT22;60945;48.516;-2.768;2023-07-20T05:35:48;15.20;82.90
72814;DHT22;60945;48.516;-2.768;2023-07-20T05:38:14;15.20;82.70
72814;DHT22;60945;48.516;-2.768;2023-07-20T05:40:44;15.30;82.70
72814;DHT22;60945;48.516;-2.768;2023-07-20T05:43:10;15.30;82.70
72814;DHT22;60945;48.516;-2.768;2023-07-20T05:45:37;15.40;82.80
72814;DHT22;60945;48.516;-2.768;2023-07-20T05:48:03;15.50;82.70
72814;DHT22;60945;48.516;-2.768;2023-07-20T05:50:28;15.60;82.20
72814;DHT22;60945;48.516;-2.768;2023-07-20T05:52:54;15.60;82.10
72814;DHT22;60945;48.516;-2.768;2023-07-20T05:55:20;15.70;82.00
72814;DHT22;60945;48.516;-2.768;2023-07-20T05:57:46;15.70;81.90
72814;DHT22;60945;48.516;-2.768;2023-07-20T06:00:13;15.90;81.80
72814;DHT22;60945;48.516;-2.768;2023-07-20T06:02:39;16.00;81.40
72814;DHT22;60945;48.516;-2.768;2023-07-20T06:05:06;16.10;80.80
72814;DHT22;60945;48.516;-2.768;2023-07-20T06:07:36;16.30;80.30
72814;DHT22;60945;48.516;-2.768;2023-07-20T06:10:02;16.40;79.90
72814;DHT22;60945;48.516;-2.768;2023-07-20T06:12:27;16.40;80.30
72814;DHT22;60945;48.516;-2.768;2023-07-20T06:14:53;16.60;79.90
72814;DHT22;60945;48.516;-2.768;2023-07-20T06:17:19;16.80;79.00
72814;DHT22;60945;48.516;-2.768;2023-07-20T06:19:45;16.80;78.70
72814;DHT22;60945;48.516;-2.768;2023-07-20T06:22:10;16.80;79.00
72814;DHT22;60945;48.516;-2.768;2023-07-20T06:24:36;16.80;79.20
72814;DHT22;60945;48.516;-2.768;2023-07-20T06:27:02;17.00;78.90
72814;DHT22;60945;48.516;-2.768;2023-07-20T06:29:28;17.00;79.00
72814;DHT22;60945;48.516;-2.768;2023-07-20T06:31:54;17.00;78.70
72814;DHT22;60945;48.516;-2.768;2023-07-20T06:34:19;17.00;79.00
72814;DHT22;60945;48.516;-2.768;2023-07-20T06:36:45;16.90;79.10
72814;DHT22;60945;48.516;-2.768;2023-07-20T06:39:11;16.90;79.60
72814;DHT22;60945;48.516;-2.768;2023-07-20T06:41:36;16.90;79.70
72814;DHT22;60945;48.516;-2.768;2023-07-20T06:44:02;16.90;79.50
72814;DHT22;60945;48.516;-2.768;2023-07-20T06:46:28;17.00;79.40
72814;DHT22;60945;48.516;-2.768;2023-07-20T06:48:54;17.20;78.80
72814;DHT22;60945;48.516;-2.768;2023-07-20T06:51:20;17.30;78.50
72814;DHT22;60945;48.516;-2.768;2023-07-20T06:53:46;17.40;78.30
72814;DHT22;60945;48.516;-2.768;2023-07-20T06:56:11;17.40;78.50
72814;DHT22;60945;48.516;-2.768;2023-07-20T06:58:38;17.40;78.50
72814;DHT22;60945;48.516;-2.768;2023-07-20T07:01:07;17.60;77.70
72814;DHT22;60945;48.516;-2.768;2023-07-20T07:03:33;17.90;76.80
72814;DHT22;60945;48.516;-2.768;2023-07-20T07:05:59;18.00;76.20
72814;DHT22;60945;48.516;-2.768;2023-07-20T07:08:25;18.20;75.60
72814;DHT22;60945;48.516;-2.768;2023-07-20T07:10:52;18.40;74.40
72814;DHT22;60945;48.516;-2.768;2023-07-20T07:13:19;18.50;74.60
72814;DHT22;60945;48.516;-2.768;2023-07-20T07:15:45;18.70;74.20
72814;DHT22;60945;48.516;-2.768;2023-07-20T07:18:11;18.70;73.90
72814;DHT22;60945;48.516;-2.768;2023-07-20T07:20:37;18.90;73.50
72814;DHT22;60945;48.516;-2.768;2023-07-20T07:23:03;19.00;72.80
72814;DHT22;60945;48.516;-2.768;2023-07-20T07:25:29;19.10;72.60
72814;DHT22;60945;48.516;-2.768;2023-07-20T07:27:56;19.20;72.00
72814;DHT22;60945;48.516;-2.768;2023-07-20T07:30:22;19.40;72.00
72814;DHT22;60945;48.516;-2.768;2023-07-20T07:32:48;19.20;71.60
72814;DHT22;60945;48.516;-2.768;2023-07-20T07:35:14;19.40;71.90
72814;DHT22;60945;48.516;-2.768;2023-07-20T07:37:39;19.60;70.90
72814;DHT22;60945;48.516;-2.768;2023-07-20T07:40:06;19.70;69.50
72814;DHT22;60945;48.516;-2.768;2023-07-20T07:42:33;19.70;70.10
72814;DHT22;60945;48.516;-2.768;2023-07-20T07:44:58;19.40;70.90
72814;DHT22;60945;48.516;-2.768;2023-07-20T07:47:24;19.50;71.10
72814;DHT22;60945;48.516;-2.768;2023-07-20T07:49:50;19.40;70.30
72814;DHT22;60945;48.516;-2.768;2023-07-20T07:52:16;19.00;71.30
72814;DHT22;60945;48.516;-2.768;2023-07-20T07:54:41;18.50;73.70
72814;DHT22;60945;48.516;-2.768;2023-07-20T07:57:07;18.70;74.00
72814;DHT22;60945;48.516;-2.768;2023-07-20T07:59:33;18.70;73.70
72814;DHT22;60945;48.516;-2.768;2023-07-20T08:02:04;18.60;73.90
72814;DHT22;60945;48.516;-2.768;2023-07-20T08:04:29;18.60;74.00
72814;DHT22;60945;48.516;-2.768;2023-07-20T08:06:55;18.70;74.20
72814;DHT22;60945;48.516;-2.768;2023-07-20T08:09:21;18.50;74.10
72814;DHT22;60945;48.516;-2.768;2023-07-20T08:11:47;18.50;74.40
72814;DHT22;60945;48.516;-2.768;2023-07-20T08:14:16;18.70;73.70
72814;DHT22;60945;48.516;-2.768;2023-07-20T08:16:42;18.90;73.50
72814;DHT22;60945;48.516;-2.768;2023-07-20T08:19:08;19.00;72.10
72814;DHT22;60945;48.516;-2.768;2023-07-20T08:21:34;19.00;71.90
72814;DHT22;60945;48.516;-2.768;2023-07-20T08:23:59;19.00;71.20
72814;DHT22;60945;48.516;-2.768;2023-07-20T08:26:25;19.00;71.10
72814;DHT22;60945;48.516;-2.768;2023-07-20T08:28:51;19.00;71.20
72814;DHT22;60945;48.516;-2.768;2023-07-20T08:31:17;19.10;69.30
72814;DHT22;60945;48.516;-2.768;2023-07-20T08:33:43;19.50;68.70
72814;DHT22;60945;48.516;-2.768;2023-07-20T08:36:09;19.90;67.70
72814;DHT22;60945;48.516;-2.768;2023-07-20T08:38:34;19.90;67.10
72814;DHT22;60945;48.516;-2.768;2023-07-20T08:41:00;20.30;66.00
72814;DHT22;60945;48.516;-2.768;2023-07-20T08:43:28;20.80;64.90
72814;DHT22;60945;48.516;-2.768;2023-07-20T08:45:57;21.20;62.30
72814;DHT22;60945;48.516;-2.768;2023-07-20T08:48:24;21.60;60.70
72814;DHT22;60945;48.516;-2.768;2023-07-20T08:50:51;21.70;59.80
72814;DHT22;60945;48.516;-2.768;2023-07-20T08:53:18;21.80;59.20
72814;DHT22;60945;48.516;-2.768;2023-07-20T08:55:45;21.90;58.70
72814;DHT22;60945;48.516;-2.768;2023-07-20T08:58:12;21.60;58.50
72814;DHT22;60945;48.516;-2.768;2023-07-20T09:00:41;21.90;56.90
72814;DHT22;60945;48.516;-2.768;2023-07-20T09:03:07;22.50;56.00
72814;DHT22;60945;48.516;-2.768;2023-07-20T09:05:33;23.00;54.60
72814;DHT22;60945;48.516;-2.768;2023-07-20T09:08:00;23.10;54.20
72814;DHT22;60945;48.516;-2.768;2023-07-20T09:10:29;23.40;54.20
72814;DHT22;60945;48.516;-2.768;2023-07-20T09:12:54;23.80;52.80
72814;DHT22;60945;48.516;-2.768;2023-07-20T09:15:21;23.20;55.00
72814;DHT22;60945;48.516;-2.768;2023-07-20T09:17:48;22.60;56.30
72814;DHT22;60945;48.516;-2.768;2023-07-20T09:20:18;21.90;58.50
72814;DHT22;60945;48.516;-2.768;2023-07-20T09:22:44;21.10;61.10
72814;DHT22;60945;48.516;-2.768;2023-07-20T09:25:15;20.90;62.00
72814;DHT22;60945;48.516;-2.768;2023-07-20T09:27:43;20.60;63.10
72814;DHT22;60945;48.516;-2.768;2023-07-20T09:30:09;20.50;63.80
72814;DHT22;60945;48.516;-2.768;2023-07-20T09:32:43;20.40;64.00
72814;DHT22;60945;48.516;-2.768;2023-07-20T09:37:39;21.30;61.20
72814;DHT22;60945;48.516;-2.768;2023-07-20T09:40:06;21.70;59.90
72814;DHT22;60945;48.516;-2.768;2023-07-20T09:42:35;21.70;59.70
72814;DHT22;60945;48.516;-2.768;2023-07-20T09:45:00;21.70;59.50
72814;DHT22;60945;48.516;-2.768;2023-07-20T09:47:26;22.00;58.30
72814;DHT22;60945;48.516;-2.768;2023-07-20T09:49:59;22.30;57.50
72814;DHT22;60945;48.516;-2.768;2023-07-20T09:52:25;23.00;56.10
72814;DHT22;60945;48.516;-2.768;2023-07-20T09:54:51;23.10;54.70
72814;DHT22;60945;48.516;-2.768;2023-07-20T09:57:18;22.90;55.40
72814;DHT22;60945;48.516;-2.768;2023-07-20T09:59:43;23.10;54.90
72814;DHT22;60945;48.516;-2.768;2023-07-20T10:02:33;23.30;54.50
72814;DHT22;60945;48.516;-2.768;2023-07-20T10:05:02;23.20;54.00
72814;DHT22;60945;48.516;-2.768;2023-07-20T10:07:30;22.70;54.50
72814;DHT22;60945;48.516;-2.768;2023-07-20T10:09:57;22.40;55.50
72814;DHT22;60945;48.516;-2.768;2023-07-20T10:12:25;22.30;55.10
72814;DHT22;60945;48.516;-2.768;2023-07-20T10:15:11;22.20;55.80
72814;DHT22;60945;48.516;-2.768;2023-07-20T10:17:44;21.90;57.30
72814;DHT22;60945;48.516;-2.768;2023-07-20T10:20:17;21.40;59.70
72814;DHT22;60945;48.516;-2.768;2023-07-20T10:22:47;21.20;60.60
72814;DHT22;60945;48.516;-2.768;2023-07-20T10:25:16;21.10;61.40
72814;DHT22;60945;48.516;-2.768;2023-07-20T10:27:42;21.20;60.70
72814;DHT22;60945;48.516;-2.768;2023-07-20T10:30:08;21.20;60.40
72814;DHT22;60945;48.516;-2.768;2023-07-20T10:32:35;21.20;60.20
72814;DHT22;60945;48.516;-2.768;2023-07-20T10:35:00;21.40;59.10
72814;DHT22;60945;48.516;-2.768;2023-07-20T10:37:50;21.60;58.90
72814;DHT22;60945;48.516;-2.768;2023-07-20T10:40:29;22.20;57.20
72814;DHT22;60945;48.516;-2.768;2023-07-20T10:43:00;22.70;55.50
72814;DHT22;60945;48.516;-2.768;2023-07-20T10:45:36;22.50;55.80
72814;DHT22;60945;48.516;-2.768;2023-07-20T10:48:16;22.40;56.20
72814;DHT22;60945;48.516;-2.768;2023-07-20T10:50:43;22.70;55.30
72814;DHT22;60945;48.516;-2.768;2023-07-20T10:53:17;24.50;51.60
72814;DHT22;60945;48.516;-2.768;2023-07-20T10:55:43;26.90;46.60
72814;DHT22;60945;48.516;-2.768;2023-07-20T10:58:11;28.40;43.30
72814;DHT22;60945;48.516;-2.768;2023-07-20T11:00:38;27.80;43.20
72814;DHT22;60945;48.516;-2.768;2023-07-20T11:03:48;25.50;47.70
72814;DHT22;60945;48.516;-2.768;2023-07-20T11:09:10;25.90;46.50
72814;DHT22;60945;48.516;-2.768;2023-07-20T11:11:38;24.10;51.30
72814;DHT22;60945;48.516;-2.768;2023-07-20T11:14:25;23.90;53.20
72814;DHT22;60945;48.516;-2.768;2023-07-20T11:16:52;24.60;50.20
72814;DHT22;60945;48.516;-2.768;2023-07-20T11:19:25;26.40;47.80
72814;DHT22;60945;48.516;-2.768;2023-07-20T11:21:56;27.80;43.60
72814;DHT22;60945;48.516;-2.768;2023-07-20T11:24:23;27.50;43.60
72814;DHT22;60945;48.516;-2.768;2023-07-20T11:26:51;27.30;43.10
72814;DHT22;60945;48.516;-2.768;2023-07-20T11:29:20;27.50;42.90
72814;DHT22;60945;48.516;-2.768;2023-07-20T11:31:47;27.90;41.60
72814;DHT22;60945;48.516;-2.768;2023-07-20T11:34:17;27.60;41.90
72814;DHT22;60945;48.516;-2.768;2023-07-20T11:36:46;27.10;42.60
72814;DHT22;60945;48.516;-2.768;2023-07-20T11:39:15;26.20;45.00
72814;DHT22;60945;48.516;-2.768;2023-07-20T11:41:57;26.60;44.10
72814;DHT22;60945;48.516;-2.768;2023-07-20T11:44:27;29.20;40.90
72814;DHT22;60945;48.516;-2.768;2023-07-20T11:47:04;33.70;33.20
72814;DHT22;60945;48.516;-2.768;2023-07-20T11:49:34;29.50;38.70
72814;DHT22;60945;48.516;-2.768;2023-07-20T11:52:00;31.50;36.50
72814;DHT22;60945;48.516;-2.768;2023-07-20T11:54:26;33.80;33.10
72814;DHT22;60945;48.516;-2.768;2023-07-20T11:57:01;32.10;34.80
72814;DHT22;60945;48.516;-2.768;2023-07-20T11:59:30;30.50;37.30
72814;DHT22;60945;48.516;-2.768;2023-07-20T12:01:57;30.40;37.40
72814;DHT22;60945;48.516;-2.768;2023-07-20T12:04:23;32.20;35.00
72814;DHT22;60945;48.516;-2.768;2023-07-20T12:06:53;30.90;36.40
72814;DHT22;60945;48.516;-2.768;2023-07-20T12:09:20;28.30;39.40
72814;DHT22;60945;48.516;-2.768;2023-07-20T12:11:48;27.00;42.50
72814;DHT22;60945;48.516;-2.768;2023-07-20T12:14:14;26.50;42.90
72814;DHT22;60945;48.516;-2.768;2023-07-20T12:16:39;26.40;42.90
72814;DHT22;60945;48.516;-2.768;2023-07-20T12:21:34;26.30;43.00
72814;DHT22;60945;48.516;-2.768;2023-07-20T12:24:02;26.50;42.60
72814;DHT22;60945;48.516;-2.768;2023-07-20T12:26:30;25.80;43.50
72814;DHT22;60945;48.516;-2.768;2023-07-20T12:28:55;25.40;45.00
72814;DHT22;60945;48.516;-2.768;2023-07-20T12:31:23;24.70;47.10
72814;DHT22;60945;48.516;-2.768;2023-07-20T12:33:53;23.90;49.40
72814;DHT22;60945;48.516;-2.768;2023-07-20T12:36:21;23.60;49.30
72814;DHT22;60945;48.516;-2.768;2023-07-20T12:38:46;23.30;50.90
72814;DHT22;60945;48.516;-2.768;2023-07-20T12:41:14;23.20;51.30
72814;DHT22;60945;48.516;-2.768;2023-07-20T12:43:44;22.80;51.80
72814;DHT22;60945;48.516;-2.768;2023-07-20T12:46:10;22.90;51.50
72814;DHT22;60945;48.516;-2.768;2023-07-20T12:48:37;23.80;49.70
72814;DHT22;60945;48.516;-2.768;2023-07-20T12:51:05;24.80;48.00
72814;DHT22;60945;48.516;-2.768;2023-07-20T12:53:31;24.70;48.40
72814;DHT22;60945;48.516;-2.768;2023-07-20T12:55:58;25.10;47.70
72814;DHT22;60945;48.516;-2.768;2023-07-20T12:58:24;25.40;47.00
72814;DHT22;60945;48.516;-2.768;2023-07-20T13:00:49;24.50;47.40
72814;DHT22;60945;48.516;-2.768;2023-07-20T13:03:15;23.80;48.90
72814;DHT22;60945;48.516;-2.768;2023-07-20T13:05:46;23.80;48.50
72814;DHT22;60945;48.516;-2.768;2023-07-20T13:08:11;24.30;46.00
72814;DHT22;60945;48.516;-2.768;2023-07-20T13:10:38;24.10;48.50
72814;DHT22;60945;48.516;-2.768;2023-07-20T13:13:07;24.00;49.60
72814;DHT22;60945;48.516;-2.768;2023-07-20T13:15:47;23.90;48.50
72814;DHT22;60945;48.516;-2.768;2023-07-20T13:18:13;22.80;51.50
72814;DHT22;60945;48.516;-2.768;2023-07-20T13:20:39;22.10;53.90
72814;DHT22;60945;48.516;-2.768;2023-07-20T13:23:05;21.60;55.10
72814;DHT22;60945;48.516;-2.768;2023-07-20T13:25:31;21.60;55.10
72814;DHT22;60945;48.516;-2.768;2023-07-20T13:28:07;21.40;54.40
72814;DHT22;60945;48.516;-2.768;2023-07-20T13:30:33;21.20;54.50
72814;DHT22;60945;48.516;-2.768;2023-07-20T13:32:59;21.40;54.60
72814;DHT22;60945;48.516;-2.768;2023-07-20T13:35:28;21.30;53.80
72814;DHT22;60945;48.516;-2.768;2023-07-20T13:37:53;21.00;53.20
72814;DHT22;60945;48.516;-2.768;2023-07-20T13:40:19;21.00;52.70
72814;DHT22;60945;48.516;-2.768;2023-07-20T13:42:45;21.00;53.40
72814;DHT22;60945;48.516;-2.768;2023-07-20T13:45:11;20.90;53.20
72814;DHT22;60945;48.516;-2.768;2023-07-20T13:47:37;21.20;54.00
72814;DHT22;60945;48.516;-2.768;2023-07-20T13:50:02;21.70;53.90
72814;DHT22;60945;48.516;-2.768;2023-07-20T13:52:30;21.80;52.50
72814;DHT22;60945;48.516;-2.768;2023-07-20T13:54:56;21.40;53.90
72814;DHT22;60945;48.516;-2.768;2023-07-20T13:57:22;21.40;54.60
72814;DHT22;60945;48.516;-2.768;2023-07-20T13:59:47;21.00;55.70
72814;DHT22;60945;48.516;-2.768;2023-07-20T14:02:14;20.50;56.50
72814;DHT22;60945;48.516;-2.768;2023-07-20T14:04:40;20.30;58.60
72814;DHT22;60945;48.516;-2.768;2023-07-20T14:07:06;20.40;58.60
72814;DHT22;60945;48.516;-2.768;2023-07-20T14:09:32;20.00;59.10
72814;DHT22;60945;48.516;-2.768;2023-07-20T14:11:58;19.70;59.80
72814;DHT22;60945;48.516;-2.768;2023-07-20T14:14:24;20.00;59.10
72814;DHT22;60945;48.516;-2.768;2023-07-20T14:16:50;20.10;60.20
72814;DHT22;60945;48.516;-2.768;2023-07-20T14:19:16;20.60;59.30
72814;DHT22;60945;48.516;-2.768;2023-07-20T14:21:41;20.70;58.00
72814;DHT22;60945;48.516;-2.768;2023-07-20T14:24:07;20.70;59.00
72814;DHT22;60945;48.516;-2.768;2023-07-20T14:26:33;20.70;59.20
72814;DHT22;60945;48.516;-2.768;2023-07-20T14:28:58;20.70;59.00
72814;DHT22;60945;48.516;-2.768;2023-07-20T14:31:24;20.40;60.00
72814;DHT22;60945;48.516;-2.768;2023-07-20T14:33:52;20.10;61.10
72814;DHT22;60945;48.516;-2.768;2023-07-20T14:36:21;20.10;61.80
72814;DHT22;60945;48.516;-2.768;2023-07-20T14:38:49;20.00;62.60
72814;DHT22;60945;48.516;-2.768;2023-07-20T14:41:18;20.30;62.00
72814;DHT22;60945;48.516;-2.768;2023-07-20T14:43:46;20.30;61.70
72814;DHT22;60945;48.516;-2.768;2023-07-20T14:46:11;20.10;62.50
72814;DHT22;60945;48.516;-2.768;2023-07-20T14:48:37;20.20;61.70
72814;DHT22;60945;48.516;-2.768;2023-07-20T14:51:03;20.10;61.80
72814;DHT22;60945;48.516;-2.768;2023-07-20T14:53:30;20.40;60.80
72814;DHT22;60945;48.516;-2.768;2023-07-20T14:56:01;20.80;60.90
72814;DHT22;60945;48.516;-2.768;2023-07-20T14:58:27;20.70;60.50
72814;DHT22;60945;48.516;-2.768;2023-07-20T15:00:53;20.80;60.40
72814;DHT22;60945;48.516;-2.768;2023-07-20T15:03:18;20.80;61.20
72814;DHT22;60945;48.516;-2.768;2023-07-20T15:05:44;20.90;60.80
72814;DHT22;60945;48.516;-2.768;2023-07-20T15:08:12;20.90;60.90
72814;DHT22;60945;48.516;-2.768;2023-07-20T15:10:41;20.80;59.70
72814;DHT22;60945;48.516;-2.768;2023-07-20T15:13:09;20.50;61.10
72814;DHT22;60945;48.516;-2.768;2023-07-20T15:15:34;20.50;61.00
72814;DHT22;60945;48.516;-2.768;2023-07-20T15:18:00;20.60;60.00
72814;DHT22;60945;48.516;-2.768;2023-07-20T15:20:25;20.60;58.90
72814;DHT22;60945;48.516;-2.768;2023-07-20T15:22:52;20.60;58.50
72814;DHT22;60945;48.516;-2.768;2023-07-20T15:25:17;20.90;57.50
72814;DHT22;60945;48.516;-2.768;2023-07-20T15:27:43;21.40;56.00
72814;DHT22;60945;48.516;-2.768;2023-07-20T15:30:09;22.10;53.60